createdAt,value
2023-02-21T00:01:35.871Z,999.90
2023-02-21T00:04:57.071Z,968.45
2023-02-21T00:08:19.395Z,999.90
2023-02-21T00:11:40.129Z,999.90
2023-02-21T00:15:01.054Z,551.95
2023-02-21T00:18:21.941Z,676.33
2023-02-21T00:21:43.770Z,999.90
2023-02-21T00:25:05.703Z,999.90
2023-02-21T00:28:26.076Z,999.90
2023-02-21T00:35:06.957Z,999.90
2023-02-21T00:38:28.849Z,793.90
2023-02-21T00:41:50.780Z,531.78
2023-02-21T00:45:11.612Z,611.40
2023-02-21T00:48:38.213Z,511.80
2023-02-21T00:51:58.970Z,563.65
2023-02-21T00:55:19.841Z,827.03
2023-02-21T00:58:42.043Z,893.17
2023-02-21T01:02:02.346Z,579.35
2023-02-21T01:05:23.707Z,820.30
2023-02-21T01:08:44.363Z,834.67
2023-02-21T01:12:04.988Z,857.83
2023-02-21T01:15:28.822Z,832.17
2023-02-21T01:18:49.658Z,928.08
2023-02-21T01:22:10.851Z,905.05
2023-02-21T01:25:31.975Z,999.90
2023-02-21T01:28:53.456Z,898.40
2023-02-21T01:32:15.672Z,823.33
2023-02-21T01:35:36.714Z,813.28
2023-02-21T01:38:59.058Z,916.30
2023-02-21T01:46:06.147Z,999.90
2023-02-21T01:49:32.308Z,999.90
2023-02-21T01:52:53.167Z,941.40
2023-02-21T01:56:17.669Z,999.90
2023-02-21T01:59:41.337Z,591.53
2023-02-21T02:03:11.686Z,999.78
2023-02-21T02:09:55.627Z,999.90
2023-02-21T02:16:18.919Z,999.90
2023-02-21T02:20:01.485Z,999.90
2023-02-21T02:23:34.607Z,884.85
2023-02-21T02:27:03.433Z,864.13
2023-02-21T02:30:30.865Z,854.88
2023-02-21T02:34:25.179Z,999.90
2023-02-21T02:37:37.089Z,618.10
2023-02-21T02:40:49.059Z,999.90
2023-02-21T02:43:59.062Z,999.90
2023-02-21T02:47:09.030Z,999.90
2023-02-21T02:50:14.458Z,572.42
2023-02-21T02:53:22.889Z,610.17
2023-02-21T02:56:28.858Z,745.30
2023-02-21T02:59:34.462Z,486.85
2023-02-21T03:03:36.504Z,999.90
2023-02-21T03:06:48.730Z,999.90
2023-02-21T03:10:00.651Z,999.90
2023-02-21T03:13:11.002Z,999.90
2023-02-21T03:16:20.977Z,999.90
2023-02-21T03:19:28.982Z,999.90
2023-02-21T03:22:34.320Z,999.90
2023-02-21T03:25:41.063Z,999.90
2023-02-21T03:28:48.941Z,948.60
2023-02-21T03:31:58.074Z,993.00
2023-02-21T03:35:01.514Z,912.97
2023-02-21T03:38:06.053Z,846.70
2023-02-21T03:41:13.555Z,886.80
2023-02-21T03:44:18.117Z,876.55
2023-02-21T03:47:21.669Z,879.65
2023-02-21T03:50:25.235Z,952.45
2023-02-21T03:53:28.625Z,910.35
2023-02-21T03:56:41.537Z,922.47
2023-02-21T04:00:06.702Z,488.27
2023-02-21T04:03:18.339Z,853.25
2023-02-21T04:06:28.700Z,999.90
2023-02-21T04:09:32.899Z,936.97
2023-02-21T04:12:37.884Z,458.45
2023-02-21T04:15:42.026Z,85.35
2023-02-21T04:18:45.550Z,433.73
2023-02-21T04:21:50.641Z,999.90
2023-02-21T04:24:53.980Z,651.40
2023-02-21T04:28:03.005Z,857.88
2023-02-21T04:31:06.514Z,629.67
2023-02-21T04:34:12.377Z,4.13
2023-02-21T04:37:18.912Z,4.82
2023-02-21T04:40:23.118Z,86.07
2023-02-21T04:43:27.776Z,29.42
2023-02-21T04:46:31.115Z,4.10
2023-02-21T04:49:34.383Z,85.00
2023-02-21T04:52:37.584Z,12.10
2023-02-21T04:55:40.871Z,2.75
2023-02-21T04:58:46.353Z,5.60
2023-02-21T05:01:49.650Z,26.65
2023-02-21T05:04:52.974Z,9.00
2023-02-21T05:08:01.580Z,3.75
2023-02-21T05:11:08.805Z,5.90
2023-02-21T05:14:13.481Z,186.80
2023-02-21T05:17:16.878Z,28.52
2023-02-21T05:20:20.723Z,17.17
2023-02-21T05:23:34.053Z,1.88
2023-02-21T05:26:39.510Z,2.70
2023-02-21T05:29:47.544Z,2.10
2023-02-21T05:32:51.172Z,49.22
2023-02-21T05:35:55.390Z,3.08
2023-02-21T05:38:58.909Z,10.25
2023-02-21T05:42:02.384Z,2.05
2023-02-21T05:45:08.057Z,2.65
2023-02-21T05:48:11.931Z,153.52
2023-02-21T05:51:16.399Z,18.42
2023-02-21T05:54:22.914Z,2.03
2023-02-21T05:57:26.596Z,1.70
2023-02-21T06:00:32.833Z,1.67
2023-02-21T06:03:36.360Z,3.75
2023-02-21T06:06:39.650Z,2.50
2023-02-21T06:09:42.990Z,2.08
2023-02-21T06:12:46.167Z,5.55
2023-02-21T06:15:50.916Z,2.40
2023-02-21T06:18:55.331Z,2.20
2023-02-21T06:21:58.654Z,2.90
2023-02-21T06:25:02.067Z,9.30
2023-02-21T06:28:05.992Z,3.83
2023-02-21T06:31:10.943Z,2.60
2023-02-21T06:34:14.390Z,2.20
2023-02-21T06:37:19.597Z,2.00
2023-02-21T06:40:22.863Z,26.58
2023-02-21T06:43:26.435Z,2.75
2023-02-21T06:46:32.041Z,13.85
2023-02-21T06:49:35.371Z,7.50
2023-02-21T06:52:38.497Z,17.80
2023-02-21T06:55:41.712Z,6.57
2023-02-21T06:58:44.875Z,4.47
2023-02-21T07:01:49.447Z,4.22
2023-02-21T07:04:52.832Z,29.67
2023-02-21T07:07:56.367Z,3.72
2023-02-21T07:10:59.599Z,21.98
2023-02-21T07:14:02.901Z,3.70
2023-02-21T07:17:08.138Z,3.78
2023-02-21T07:20:12.015Z,3.22
2023-02-21T07:23:15.327Z,14.48
2023-02-21T07:26:18.564Z,15.90
2023-02-21T07:29:21.883Z,9.35
2023-02-21T07:32:26.560Z,3.13
2023-02-21T07:35:30.006Z,30.58
2023-02-21T07:38:33.529Z,31.25
2023-02-21T07:41:36.755Z,2.88
2023-02-21T07:44:40.020Z,2.70
2023-02-21T07:47:47.994Z,25.50
2023-02-21T07:50:51.473Z,5.60
2023-02-21T07:53:54.675Z,4.10
2023-02-21T07:56:58.470Z,2.85
2023-02-21T08:00:01.738Z,22.58
2023-02-21T08:03:06.358Z,2.63
2023-02-21T08:06:11.343Z,2.30
2023-02-21T08:09:14.512Z,2.40
2023-02-21T08:12:18.001Z,2.47
2023-02-21T08:15:21.237Z,2.55
2023-02-21T08:18:26.269Z,35.75
2023-02-21T08:21:29.535Z,2.67
2023-02-21T08:24:32.817Z,2.00
2023-02-21T08:27:35.954Z,2.40
2023-02-21T08:30:39.398Z,2.55
2023-02-21T08:33:44.012Z,3.65
2023-02-21T08:36:47.316Z,21.17
2023-02-21T08:39:52.621Z,43.00
2023-02-21T08:42:56.163Z,2.95
2023-02-21T08:45:59.457Z,3.13
2023-02-21T08:49:05.304Z,4.72
2023-02-21T08:52:08.760Z,2.47
2023-02-21T08:55:12.042Z,36.85
2023-02-21T08:58:15.367Z,7.53
2023-02-21T09:01:18.894Z,10.02
2023-02-21T09:04:24.730Z,4.15
2023-02-21T09:07:28.775Z,13.00
2023-02-21T09:10:34.480Z,2.80
2023-02-21T09:13:37.734Z,3.42
2023-02-21T09:16:42.044Z,5.38
2023-02-21T09:19:46.875Z,2.63
2023-02-21T09:22:50.434Z,3.83
2023-02-21T09:25:54.198Z,2.78
2023-02-21T09:28:57.393Z,5.15
2023-02-21T09:32:00.955Z,15.35
2023-02-21T09:35:06.346Z,6.50
2023-02-21T09:38:10.097Z,2.80
2023-02-21T09:41:15.909Z,2.70
2023-02-21T09:44:23.270Z,3.28
2023-02-21T09:47:30.198Z,2.95
2023-02-21T09:50:41.026Z,2.53
2023-02-21T09:53:46.998Z,10.02
2023-02-21T09:56:50.350Z,3.47
2023-02-21T09:59:53.579Z,3.00
2023-02-21T10:03:04.857Z,2.50
2023-02-21T10:06:40.787Z,2.60
2023-02-21T10:09:47.983Z,2.42
2023-02-21T10:12:59.193Z,2.67
2023-02-21T10:16:06.916Z,7.10
2023-02-21T10:19:17.192Z,18.90
2023-02-21T10:22:25.039Z,2.63
2023-02-21T10:25:31.703Z,8.65
2023-02-21T10:28:35.089Z,9.40
2023-02-21T10:31:40.894Z,2.40
2023-02-21T10:34:47.991Z,2.28
2023-02-21T10:37:56.176Z,27.58
2023-02-21T10:41:01.486Z,3.83
2023-02-21T10:44:11.546Z,3.95
2023-02-21T10:47:20.541Z,15.07
2023-02-21T10:50:51.374Z,3.90
2023-02-21T10:54:16.042Z,29.40
2023-02-21T10:57:19.493Z,17.60
2023-02-21T11:00:36.327Z,2.28
2023-02-21T11:03:46.479Z,22.10
2023-02-21T11:06:54.516Z,10.68
2023-02-21T11:09:59.524Z,2.15
2023-02-21T11:13:07.940Z,2.85
2023-02-21T11:16:13.575Z,24.92
2023-02-21T11:19:17.592Z,2.10
2023-02-21T11:22:25.120Z,2.67
2023-02-21T11:25:32.881Z,9.23
2023-02-21T11:28:39.711Z,2.30
2023-02-21T11:31:43.781Z,15.90
2023-02-21T11:34:49.238Z,2.42
2023-02-21T11:37:55.561Z,13.52
2023-02-21T11:41:01.759Z,6.03
2023-02-21T11:44:28.228Z,16.33
2023-02-21T11:47:39.405Z,3.92
2023-02-21T11:50:50.494Z,11.38
2023-02-21T11:53:54.440Z,4.55
2023-02-21T11:57:05.307Z,3.67
2023-02-21T12:00:16.795Z,3.25
2023-02-21T12:03:42.796Z,12.90
2023-02-21T12:06:53.141Z,12.70
2023-02-21T12:13:20.102Z,3.88
2023-02-21T12:16:33.822Z,5.10
2023-02-21T12:20:11.553Z,8.80
2023-02-21T12:23:22.197Z,3.28
2023-02-21T12:26:46.368Z,8.20
2023-02-21T12:30:05.639Z,4.20
2023-02-21T12:33:25.841Z,28.98
2023-02-21T12:36:45.757Z,17.52
2023-02-21T12:40:09.601Z,17.90
2023-02-21T12:43:29.516Z,5.32
2023-02-21T12:46:37.863Z,4.68
2023-02-21T12:49:46.269Z,6.35
2023-02-21T12:53:02.684Z,13.80
2023-02-21T12:56:11.012Z,5.18
2023-02-21T12:59:20.645Z,11.02
2023-02-21T13:02:35.019Z,14.38
2023-02-21T13:05:42.451Z,27.73
2023-02-21T13:08:54.665Z,5.20
2023-02-21T13:12:03.990Z,13.38
2023-02-21T13:15:17.661Z,5.82
2023-02-21T13:18:25.616Z,3.55
2023-02-21T13:21:38.779Z,3.83
2023-02-21T13:24:51.901Z,3.75
2023-02-21T13:28:02.818Z,5.63
2023-02-21T13:31:11.268Z,4.07
2023-02-21T13:34:23.732Z,5.10
2023-02-21T13:37:31.033Z,3.85
2023-02-21T13:40:38.173Z,4.55
2023-02-21T13:43:51.142Z,4.10
2023-02-21T13:47:11.642Z,5.13
2023-02-21T13:50:46.091Z,4.75
2023-02-21T13:54:07.612Z,36.13
2023-02-21T13:57:31.416Z,5.38
2023-02-21T14:00:55.000Z,4.50
2023-02-21T14:03:58.656Z,4.90
2023-02-21T14:07:03.628Z,12.63
2023-02-21T14:10:15.952Z,3.55
2023-02-21T14:13:24.714Z,4.55
2023-02-21T14:16:32.906Z,6.22
2023-02-21T14:19:42.167Z,3.85
2023-02-21T14:22:47.005Z,35.60
2023-02-21T14:26:01.152Z,8.73
2023-02-21T14:29:31.410Z,6.05
2023-02-21T14:35:47.982Z,5.60
2023-02-21T14:38:55.179Z,22.90
2023-02-21T14:42:19.130Z,7.10
2023-02-21T14:45:39.090Z,11.70
2023-02-21T14:49:03.239Z,7.28
2023-02-21T14:52:36.256Z,8.43
2023-02-21T14:56:10.164Z,7.10
2023-02-21T14:59:39.076Z,6.10
2023-02-21T15:02:49.747Z,63.47
2023-02-21T15:06:03.591Z,6.93
2023-02-21T15:09:14.226Z,5.68
2023-02-21T15:12:19.570Z,5.43
2023-02-21T15:15:25.389Z,8.20
2023-02-21T15:18:30.815Z,6.05
2023-02-21T15:21:34.020Z,5.70
2023-02-21T15:24:37.338Z,4.60
2023-02-21T15:27:59.622Z,4.95
2023-02-21T15:31:06.316Z,27.08
2023-02-21T15:34:18.791Z,14.05
2023-02-21T15:37:25.292Z,11.27
2023-02-21T15:40:29.617Z,7.00
2023-02-21T15:44:04.793Z,14.90
2023-02-21T15:47:12.244Z,7.95
2023-02-21T15:50:20.699Z,15.85
2023-02-21T15:53:25.810Z,16.63
2023-02-21T15:56:31.296Z,13.35
2023-02-21T15:59:36.277Z,7.07
2023-02-21T16:02:39.569Z,15.27
2023-02-21T16:05:42.907Z,8.68
2023-02-21T16:09:02.111Z,8.77
2023-02-21T16:12:19.082Z,7.30
2023-02-21T16:15:30.151Z,20.35
2023-02-21T16:18:33.836Z,43.95
2023-02-21T16:21:43.743Z,11.00
2023-02-21T16:24:47.929Z,36.22
2023-02-21T16:27:53.525Z,10.35
2023-02-21T16:31:00.924Z,13.38
2023-02-21T16:34:07.906Z,10.63
2023-02-21T16:37:13.877Z,9.45
2023-02-21T16:40:23.822Z,8.95
2023-02-21T16:43:29.559Z,12.55
2023-02-21T16:46:34.492Z,9.55
2023-02-21T16:49:37.832Z,11.27
2023-02-21T16:52:41.304Z,13.38
2023-02-21T16:55:45.761Z,16.05
2023-02-21T16:58:52.230Z,17.10
2023-02-21T17:01:56.985Z,18.48
2023-02-21T17:05:00.474Z,19.20
2023-02-21T17:08:05.220Z,15.23
2023-02-21T17:11:08.491Z,11.95
2023-02-21T17:14:11.911Z,11.85
2023-02-21T17:17:17.798Z,12.52
2023-02-21T17:20:21.912Z,9.23
2023-02-21T17:23:29.497Z,88.75
2023-02-21T17:26:34.320Z,20.55
2023-02-21T17:29:38.240Z,9.00
2023-02-21T17:32:43.811Z,9.05
2023-02-21T17:35:48.630Z,11.27
2023-02-21T17:38:52.208Z,11.32
2023-02-21T17:41:55.876Z,10.82
2023-02-21T17:45:02.108Z,11.65
2023-02-21T17:48:10.136Z,10.70
2023-02-21T17:51:19.963Z,8.30
2023-02-21T17:54:25.701Z,9.15
2023-02-21T17:57:30.037Z,7.70
2023-02-21T18:00:34.702Z,10.10
2023-02-21T18:03:39.479Z,9.00
2023-02-21T18:06:43.505Z,12.73
2023-02-21T18:09:47.942Z,14.52
2023-02-21T18:12:52.242Z,9.13
2023-02-21T18:15:55.626Z,11.95
2023-02-21T18:19:00.681Z,11.60
2023-02-21T18:22:06.302Z,7.57
2023-02-21T18:25:10.344Z,11.70
2023-02-21T18:28:13.901Z,8.88
2023-02-21T18:31:18.051Z,8.85
2023-02-21T18:34:22.969Z,10.27
2023-02-21T18:37:26.754Z,13.40
2023-02-21T18:40:35.248Z,8.45
2023-02-21T18:43:38.757Z,8.70
2023-02-21T18:46:46.204Z,12.02
2023-02-21T18:49:51.296Z,8.77
2023-02-21T18:52:54.846Z,9.02
2023-02-21T19:00:27.646Z,9.48
2023-02-21T19:03:31.214Z,11.90
2023-02-21T19:06:36.448Z,10.38
2023-02-21T19:09:40.132Z,9.48
2023-02-21T19:12:43.586Z,12.57
2023-02-21T19:15:47.291Z,15.63
2023-02-21T19:18:51.601Z,8.65
2023-02-21T19:21:57.575Z,8.35
2023-02-21T19:25:02.383Z,9.07
2023-02-21T19:28:06.877Z,14.32
2023-02-21T19:31:12.280Z,23.70
2023-02-21T19:34:15.943Z,9.00
2023-02-21T19:37:20.782Z,8.75
2023-02-21T19:40:25.012Z,12.20
2023-02-21T19:43:28.501Z,10.00
2023-02-21T19:46:33.352Z,9.50
2023-02-21T19:49:36.802Z,28.90
2023-02-21T19:52:41.722Z,8.85
2023-02-21T19:55:45.297Z,8.27
2023-02-21T19:58:49.058Z,63.72
2023-02-21T20:01:54.162Z,7.95
2023-02-21T20:04:57.700Z,9.93
2023-02-21T20:08:03.725Z,9.05
2023-02-21T20:11:07.258Z,8.30
2023-02-21T20:14:11.986Z,8.70
2023-02-21T20:17:15.648Z,8.50
2023-02-21T20:20:19.427Z,7.65
2023-02-21T20:23:24.330Z,9.50
2023-02-21T20:26:28.256Z,7.57
2023-02-21T20:29:32.438Z,7.80
2023-02-21T20:32:38.768Z,7.95
2023-02-21T20:35:43.765Z,8.10
2023-02-21T20:38:48.518Z,8.45
2023-02-21T20:41:52.080Z,8.63
2023-02-21T20:44:55.691Z,10.40
2023-02-21T20:47:59.137Z,9.38
2023-02-21T20:51:06.308Z,7.75
2023-02-21T20:54:13.794Z,7.88
2023-02-21T20:57:42.682Z,6.80
2023-02-21T21:00:45.970Z,8.15
2023-02-21T21:03:49.609Z,8.43
2023-02-21T21:06:53.094Z,7.10
2023-02-21T21:09:57.762Z,7.75
2023-02-21T21:13:01.782Z,7.95
2023-02-21T21:16:06.239Z,7.88
2023-02-21T21:19:10.341Z,7.90
2023-02-21T21:22:16.879Z,8.02
2023-02-21T21:25:22.764Z,8.27
2023-02-21T21:28:26.321Z,8.13
2023-02-21T21:31:30.924Z,8.70
2023-02-21T21:34:34.348Z,8.48
2023-02-21T21:37:40.700Z,8.98
2023-02-21T21:40:48.039Z,7.28
2023-02-21T21:43:52.129Z,8.07
2023-02-21T21:46:55.743Z,8.38
2023-02-21T21:49:59.539Z,7.63
2023-02-21T21:53:02.799Z,8.20
2023-02-21T21:56:07.963Z,8.02
2023-02-21T21:59:12.411Z,6.90
2023-02-21T22:02:15.887Z,10.15
2023-02-21T22:05:21.060Z,8.32
2023-02-21T22:08:26.500Z,7.38
2023-02-21T22:11:31.395Z,8.07
2023-02-21T22:14:35.297Z,7.13
2023-02-21T22:17:38.861Z,7.95
2023-02-21T22:20:42.879Z,71.90
2023-02-21T22:23:46.107Z,7.50
2023-02-21T22:26:53.543Z,7.57
2023-02-21T22:29:57.642Z,7.25
2023-02-21T22:33:01.051Z,5.03
2023-02-21T22:36:09.718Z,3.20
2023-02-21T22:39:13.042Z,2.67
2023-02-21T22:42:18.512Z,2.58
2023-02-21T22:45:23.352Z,2.70
2023-02-21T22:48:26.706Z,2.70
2023-02-21T22:51:30.444Z,3.22
2023-02-21T22:54:34.556Z,3.28
2023-02-21T22:57:39.474Z,4.50
2023-02-21T23:00:42.714Z,4.65
2023-02-21T23:03:46.040Z,5.40
2023-02-21T23:06:49.226Z,5.20
2023-02-21T23:09:52.468Z,4.95
2023-02-21T23:12:58.781Z,5.07
2023-02-21T23:16:02.282Z,4.43
2023-02-21T23:19:06.774Z,3.83
2023-02-21T23:22:10.029Z,3.00
2023-02-21T23:25:20.920Z,3.30
2023-02-21T23:28:26.546Z,2.60
2023-02-21T23:31:31.027Z,2.80
2023-02-21T23:34:40.523Z,3.50
2023-02-21T23:37:44.845Z,2.58
2023-02-21T23:40:50.090Z,3.30
2023-02-21T23:43:54.757Z,2.83
2023-02-21T23:46:59.293Z,3.03
2023-02-21T23:50:02.484Z,2.53
2023-02-21T23:53:06.955Z,3.45
2023-02-21T23:56:13.684Z,3.25
2023-02-21T23:59:18.301Z,4.15
